Flight Track Log - Related Links

Times and Time Zones

All times are in EDT time to prevent confusion due to time zone crossing. See the OPT732 flight status page for this flight to view local times or setup timezone preferences in your user account.

Time Position Orientation Groundspeed Altitude Reporting Facility
EDT Latitude Longitude Course Direction KTS km/h feet Rate Location/Type
Mon 12:47:33 21.7742 -72.1603 317° Northwest 490 908 2,300  Level Miami Center
Mon 12:48:33 21.7842 -72.0839 82° East 398 737 4,300 2,550 Climbing Miami Center
Mon 12:49:33 21.8572 -72.0814 North 250 463 7,400 3,000 Climbing Miami Center
Mon 12:50:00 22.3462 -72.7568 324° Northwest  Level FlightAware Approximate
Mon 12:50:33 21.9214 -72.1328 323° Northwest 197 365 10,300  Level Miami Center
Mon 12:51:00 22.4449 -72.8359 324° Northwest  Level FlightAware Approximate
Mon 12:51:33 21.9922 -72.1906 323° Northwest 252 467 11,800  Level Miami Center
Mon 12:52:00 22.5385 -72.9218 317° Northwest  Level FlightAware Approximate
Mon 12:52:33 22.0672 -72.2553 321° Northwest 306 566 13,700  Level Miami Center
Mon 12:53:33 22.1528 -72.3239 323° Northwest 336 623 15,500 1,800 Climbing Miami Center
Mon 12:54:33 22.2319 -72.3906 322° Northwest 350 649 17,300 1,700 Climbing Miami Center
Mon 12:55:33 22.3133 -72.4597 322° Northwest 361 668 18,900 1,450 Climbing Miami Center
Mon 12:56:33 22.3947 -72.5311 321° Northwest 366 678 20,200 1,550 Climbing Miami Center
Mon 12:57:33 22.4822 -72.6022 323° Northwest 376 697 22,000 1,700 Climbing Miami Center
Mon 12:58:33 22.5656 -72.6736 322° Northwest 382 708 23,600 1,500 Climbing Miami Center
Mon 12:59:33 22.6553 -72.7450 324° Northwest 382 708 25,000 1,550 Climbing Miami Center
Mon 13:00:33 22.7389 -72.8211 320° Northwest 388 719 26,700 1,650 Climbing Miami Center
Mon 13:01:33 22.8283 -72.8928 324° Northwest 388 719 28,300 1,500 Climbing Miami Center
Mon 13:02:33 22.9161 -72.9689 321° Northwest 393 727 29,700 1,450 Climbing Miami Center
Mon 13:03:33 23.0056 -73.0453 322° Northwest 403 747 31,200 1,500 Climbing Miami Center
Mon 13:04:33 23.0869 -73.1172 321° Northwest 403 747 32,700 1,350 Climbing Miami Center
Mon 13:05:33 23.1722 -73.1961 320° Northwest 411 761 33,900 1,250 Climbing Miami Center
Mon 13:06:33 23.2767 -73.2744 325° Northwest 425 787 35,200 1,550 Climbing Miami Center
Mon 13:07:33 23.3725 -73.3556 322° Northwest 430 797 37,000 1,650 Climbing Miami Center
Mon 13:08:33 23.4664 -73.4367 322° Northwest 430 797 38,500 1,500 Climbing Miami Center
Mon 13:09:33 23.5600 -73.5181 321° Northwest 425 787 40,000 1,500 Climbing Miami Center
Mon 13:10:33 23.6494 -73.5950 322° Northwest 425 787 41,500 1,300 Climbing Miami Center
Mon 13:11:33 23.7472 -73.6742 323° Northwest 425 787 42,600 650 Climbing Miami Center
Mon 13:12:33 23.8389 -73.7536 322° Northwest 425 787 42,800 250 Climbing Miami Center
Mon 13:13:33 23.9367 -73.8400 321° Northwest 437 810 43,100 250 Climbing Miami Center
Mon 13:14:33 24.0322 -73.9217 322° Northwest 437 810 43,300 200 Climbing Miami Center
Mon 13:15:33 24.1281 -74.0061 321° Northwest 437 810 43,500 200 Climbing Miami Center
Mon 13:16:33 24.2256 -74.0903 322° Northwest 442 819 43,700 250 Climbing Miami Center
Mon 13:17:33 24.3233 -74.1747 322° Northwest 442 819 44,000 250 Climbing Miami Center
Mon 13:18:33 24.4167 -74.2550 322° Northwest 442 819 44,200 200 Climbing Miami Center
Mon 13:19:33 24.5122 -74.3397 321° Northwest 436 808 44,400 250 Climbing Miami Center
Mon 13:20:33 24.6075 -74.4200 323° Northwest 436 808 44,700 250 Climbing Miami Center
Mon 13:21:33 24.7008 -74.5028 321° Northwest 431 798 44,900 150 Climbing Miami Center
Mon 13:22:33 24.7942 -74.5881 320° Northwest 431 798 45,000 100 Climbing Miami Center
Mon 13:23:33 24.8894 -74.6686 323° Northwest 431 798 45,100 150 Climbing Miami Center
Mon 13:24:33 24.9847 -74.7564 320° Northwest 436 808 45,300 200 Climbing Miami Center
Mon 13:25:33 25.0778 -74.8375 322° Northwest 429 795 45,500 200 Climbing Miami Center
Mon 13:26:33 25.1708 -74.9186 322° Northwest 429 795 45,700 200 Climbing Miami Center
Mon 13:27:33 25.2658 -75.0019 322° Northwest 429 795 45,900 200 Climbing Miami Center
Mon 13:28:33 25.3589 -75.0881 320° Northwest 429 795 46,100 200 Climbing Miami Center
Mon 13:29:33 25.4519 -75.1694 322° Northwest 429 795 46,300 200 Climbing Miami Center
Mon 13:30:33 25.5469 -75.2556 321° Northwest 429 795 46,500 150 Climbing Miami Center
Mon 13:31:33 25.6397 -75.3375 321° Northwest 429 795 46,600 150 Climbing Miami Center
Mon 13:32:33 25.7472 -75.4328 321° Northwest 429 795 46,800 200 Climbing Miami Center
Mon 13:33:33 25.8378 -75.5150 321° Northwest 425 787 47,000 100 Climbing Miami Center
Mon 13:34:33 25.9347 -75.6017 321° Northwest 432 800 47,000  Level Miami Center
Mon 13:35:33 26.0147 -75.6747 321° Northwest 427 790 47,000  Level Miami Center
Mon 13:36:33 26.1136 -75.7617 322° Northwest 433 801 47,000  Level Miami Center
Mon 13:37:33 26.2061 -75.8442 321° Northwest 433 801 47,000  Level Miami Center
Mon 13:38:33 26.3008 -75.9339 320° Northwest 433 801 47,000  Level Miami Center
Mon 13:39:33 26.3889 -76.0144 321° Northwest 427 790 47,000  Level Miami Center
Mon 13:40:33 26.4814 -76.0972 321° Northwest 421 779 47,000  Level Miami Center
Mon 13:41:33 26.5758 -76.1850 320° Northwest 428 793 47,000  Level Miami Center
Mon 13:42:33 26.6639 -76.2658 321° Northwest 428 793 47,000  Level Miami Center
Mon 13:43:33 26.7561 -76.3492 321° Northwest 423 784 47,000  Level Miami Center
Mon 13:44:33 26.8442 -76.4325 320° Northwest 423 784 47,000  Level Miami Center
Mon 13:45:33 26.9428 -76.5253 320° Northwest 439 813 47,000  Level Miami Center
Mon 13:46:33 27.0328 -76.6044 322° Northwest 438 811 47,000  Level Miami Center
Mon 13:47:33 27.1225 -76.6858 321° Northwest 427 790 47,000  Level Miami Center
Mon 13:48:33 27.2167 -76.7769 319° Northwest 427 790 47,000  Level Miami Center
Mon 13:49:33 27.3086 -76.8681 319° Northwest 435 806 47,000  Level Miami Center
Mon 13:50:33 27.3983 -76.9428 324° Northwest 428 793 47,000  Level Miami Center
Mon 13:51:33 27.5069 -77.0131 330° Northwest 428 793 47,000  Level Miami Center
Mon 13:52:33 27.6281 -77.0228 356° North 425 787 47,000  Level Miami Center
Mon 13:53:33 27.7514 -77.0392 353° North 432 800 47,000  Level Miami Center
Mon 13:54:33 27.8786 -77.0631 351° North 445 824 47,000  Level Miami Center
Mon 13:55:33 28.0019 -77.0750 355° North 445 824 47,000  Level Miami Center
Mon 13:56:33 28.1250 -77.0917 353° North 445 824 47,000  Level Miami Center
Mon 13:57:33 28.2481 -77.1083 353° North 445 824 47,000  Level Miami Center
Mon 13:58:33 28.3775 -77.1275 353° North 445 824 47,000  Level Miami Center
Mon 13:59:33 28.4964 -77.1419 354° North 434 803 47,000  Level Miami Center
Mon 14:00:33 28.6258 -77.1614 352° North 457 847 47,000  Level Miami Center
Mon 14:01:33 28.7511 -77.1781 353° North 457 847 47,000  Level Miami Center
Mon 14:02:33 28.8719 -77.1950 353° North 456 845 47,000  Level Miami Center
Mon 14:03:33 29.0078 -77.2144 353° North 451 835 47,000  Level Miami Center
Mon 14:04:33 29.1286 -77.2292 354° North 451 835 47,000  Level Miami Center
Mon 14:05:33 29.2642 -77.2511 352° North 461 855 47,000 -50 Level Miami Center
Mon 14:06:33 29.4061 -77.2706 353° North 466 863 46,900  Descending Miami Center
Mon 14:07:33 29.5250 -77.2853 354° North 470 871 47,000  Climbing Miami Center
Mon 14:08:33 29.6561 -77.3050 353° North 464 859 46,900  Descending Miami Center
Mon 14:09:39 29.7817 -77.3200 354° North 458 848 47,000 48 Climbing Jacksonville Center
Mon 14:10:39 29.9097 -77.3367 354° North 458 848 47,000  Level Jacksonville Center
Mon 14:11:39 30.0400 -77.3581 352° North 471 872 47,000 -50 Level Jacksonville Center
Mon 14:12:39 30.1842 -77.3642 358° North 465 861 46,900  Descending Jacksonville Center
Mon 14:13:39 30.3164 -77.3831 353° North 460 851 47,000 50 Climbing Jacksonville Center
Mon 14:14:39 30.4450 -77.4092 350° North 470 871 47,000 -50 Level Jacksonville Center
Mon 14:15:39 30.5772 -77.4258 354° North 470 871 46,900  Descending Jacksonville Center
Mon 14:16:39 30.7072 -77.4447 353° North 470 871 47,000 50 Climbing Jacksonville Center
Mon 14:17:39 30.8397 -77.4686 351° North 470 871 47,000  Level Jacksonville Center
Mon 14:18:39 30.9722 -77.4878 353° North 470 871 47,000  Level Jacksonville Center
Mon 14:19:39 31.1044 -77.5067 353° North 470 871 47,000  Level Jacksonville Center
Mon 14:20:39 31.2389 -77.5258 353° North 475 880 47,000  Level Jacksonville Center
Mon 14:21:39 31.3753 -77.5422 354° North 481 892 47,000  Level Jacksonville Center
Mon 14:22:39 31.5100 -77.5711 350° North 486 900 47,000  Level Jacksonville Center
Mon 14:23:39 31.6464 -77.5900 353° North 486 900 47,000  Level Jacksonville Center
Mon 14:24:39 31.7869 -77.6089 353° North 486 900 47,000  Level Jacksonville Center
Mon 14:25:39 31.9214 -77.6281 353° North 486 900 47,000  Level Jacksonville Center
Mon 14:26:39 32.0558 -77.6497 352° North 486 900 47,000  Level Jacksonville Center
Mon 14:27:39 32.1903 -77.6717 352° North 486 900 47,000  Level Jacksonville Center
Mon 14:28:39 32.3225 -77.6886 354° North 486 900 47,000  Level Jacksonville Center
Mon 14:29:39 32.4572 -77.7128 351° North 486 900 47,000  Level Jacksonville Center
Mon 14:30:39 32.5872 -77.7278 354° North 486 900 47,000 -50 Level Jacksonville Center
Mon 14:31:39 32.7214 -77.7472 353° North 486 900 46,900  Descending Jacksonville Center
Mon 14:32:39 32.8539 -77.7667 353° North 486 900 47,000  Climbing Jacksonville Center
Mon 14:33:39 32.9883 -77.7889 352° North 486 900 46,900  Descending Jacksonville Center
Mon 14:34:39 33.1206 -77.8111 352° North 486 900 47,000  Climbing Jacksonville Center
Mon 14:35:39 33.2547 -77.8283 354° North 486 900 46,900  Descending Jacksonville Center
Mon 14:36:39 33.3872 -77.8506 352° North 486 900 47,000  Climbing Jacksonville Center
Mon 14:37:39 33.5236 -77.8725 352° North 486 900 46,900  Descending Jacksonville Center
Mon 14:38:12 33.5803 -77.8825 352° North 499 924 47,000 65 Climbing Washington Center
Mon 14:39:12 33.7136 -77.9011 353° North 499 924 47,000  Level Washington Center
Mon 14:40:13 33.8489 -77.9222 353° North 486 900 47,000  Level Washington Center
Mon 14:41:14 33.9986 -77.9439 353° North 486 900 47,000  Level Washington Center
Mon 14:42:12 34.1339 -77.9578 355° North 486 900 47,000  Level Washington Center
Mon 14:43:13 34.2717 -77.9567 360° North 486 900 47,000  Level Washington Center
Mon 14:44:14 34.4156 -77.9533 North 497 921 47,000  Level Washington Center
Mon 14:45:14 34.5536 -77.9447 North 497 921 47,000  Level Washington Center
Mon 14:46:12 34.6933 -77.9411 North 497 921 47,000  Level Washington Center
Mon 14:47:13 34.8292 -77.9325 North 497 921 47,000  Level Washington Center
Mon 14:48:13 34.9669 -77.9264 North 492 911 47,000  Level Washington Center
Mon 14:49:14 35.1047 -77.9228 North 492 911 47,000  Level Washington Center
Mon 14:50:14 35.2447 -77.9167 North 497 921 47,000  Level Washington Center
Mon 14:51:12 35.3803 -77.9128 North 497 921 47,000  Level Washington Center
Mon 14:52:13 35.5078 -77.9064 North 497 921 47,000  Level Washington Center
Mon 14:53:13 35.6433 -77.9025 North 497 921 47,000  Level Washington Center
Mon 14:54:13 35.7814 -77.8964 North 497 921 47,000  Level Washington Center
Mon 14:55:12 35.9192 -77.8900 North 497 921 47,000  Level Washington Center
Mon 14:56:12 36.0569 -77.8864 North 497 921 47,000  Level Washington Center
Mon 14:57:13 36.1925 -77.8825 North 497 921 47,000  Level Washington Center
Mon 14:58:14 36.3325 -77.8764 North 497 921 47,000  Level Washington Center
Mon 14:59:12 36.4808 -77.8703 North 492 911 47,000  Level Washington Center
Mon 15:00:12 36.6150 -77.8356 12° North 483 895 47,000  Level Washington Center
Mon 15:01:12 36.7372 -77.7717 23° Northeast 497 921 47,000  Level Washington Center
Mon 15:02:13 36.8697 -77.7053 22° Northeast 508 941 47,000  Level Washington Center
Mon 15:03:13 37.0003 -77.6361 23° Northeast 508 941 47,000  Level Washington Center
Mon 15:04:14 37.1308 -77.5692 22° Northeast 508 941 47,000  Level Washington Center
Mon 15:05:12 37.2633 -77.5019 22° Northeast 502 930 47,000  Level Washington Center
Mon 15:06:12 37.4083 -77.4300 22° Northeast 502 930 47,000  Level Washington Center
Mon 15:07:13 37.5408 -77.3597 23° Northeast 502 930 47,000  Level Washington Center
Mon 15:08:13 37.6731 -77.2919 22° Northeast 502 930 47,000  Level Washington Center
Mon 15:09:14 37.8033 -77.2214 23° Northeast 502 930 47,000 -1,261 Level Washington Center
Mon 15:10:12 37.9378 -77.1506 23° Northeast 502 930 44,500 -2,288 Descending Washington Center
Mon 15:11:12 38.0722 -77.0794 23° Northeast 507 938 42,500 -2,050 Descending Washington Center
Mon 15:12:12 38.2022 -77.0133 22° Northeast 507 938 40,400 -2,033 Descending Washington Center
Mon 15:13:13 38.3367 -76.9444 22° Northeast 507 938 38,400 -2,016 Descending Washington Center
Mon 15:14:14 38.4686 -76.8725 23° Northeast 507 938 36,300 -2,168 Descending Washington Center
Mon 15:15:12 38.6092 -76.7978 23° Northeast 518 959 34,100 -2,168 Descending Washington Center
Mon 15:16:13 38.7392 -76.7122 27° Northeast 524 970 32,000 -2,016 Descending Washington Center
Mon 15:17:14 38.8425 -76.5883 43° Northeast 512 948 30,000 -1,983 Descending Washington Center
Mon 15:18:14 38.9436 -76.4697 42° Northeast 501 929 28,000 -2,034 Descending Washington Center
Mon 15:19:12 39.0381 -76.3611 42° Northeast 496 919 26,000 -1,966 Descending Washington Center
Mon 15:20:13 39.1367 -76.2444 43° Northeast 496 919 24,100 -992 Descending Washington Center
Mon 15:21:13 39.2372 -76.1328 41° Northeast 485 898 24,000 -450 Descending Washington Center
Mon 15:22:13 39.3397 -76.0264 39° Northeast 472 874 23,200 -1,792 Descending Washington Center
Mon 15:23:47 39.5000 -75.8667 38° Northeast 413 764 19,400 -2,426 Descending Philadelphia TRACON
Mon 15:24:29 39.5667 -75.8167 30° Northeast 399 739 17,700 -2,167 Descending Philadelphia TRACON
Mon 15:25:35 39.6667 -75.7167 38° Northeast 389 721 15,500 -2,000 Descending Philadelphia TRACON
Mon 15:26:29 39.7500 -75.6500 32° Northeast 385 713 13,700 -1,250 Descending Philadelphia TRACON
Mon 15:27:35 39.8333 -75.5667 38° Northeast 364 674 13,000 -333 Descending Philadelphia TRACON
Mon 15:28:35 39.9167 -75.4833 37° Northeast 370 686 13,000  Level Philadelphia TRACON
Mon 15:29:29 40.0000 -75.4167 31° Northeast 375 695 13,000  Level Philadelphia TRACON
Mon 15:30:35 40.1000 -75.3167 37° Northeast 379 702 13,000 -50 Level Philadelphia TRACON
Mon 15:31:29 40.1667 -75.2500 37° Northeast 375 695 12,900 -1,267 Descending Philadelphia TRACON
Mon 15:33:35 40.3167 -75.1167 34° Northeast 288 533 9,200 -1,710 Descending New York TRACON
Mon 15:34:35 40.3833 -75.0333 44° Northeast 293 542 7,600 -1,600 Descending New York TRACON
Mon 15:35:35 40.4333 -74.9500 52° Northeast 289 536 6,000 -1,600 Descending New York TRACON
Mon 15:36:35 40.4833 -74.8833 45° Northeast 271 502 4,400 -1,000 Descending New York TRACON
Mon 15:37:35 40.5333 -74.8167 45° Northeast 276 512 4,000 -198 Descending New York TRACON
Mon 15:38:36 40.5833 -74.7333 52° Northeast 273 505 4,000  Level New York TRACON
Mon 15:39:36 40.6500 -74.6833 30° Northeast 263 488 4,000  Level New York TRACON
Mon 15:40:36 40.7167 -74.6333 30° Northeast 276 512 4,000 -100 Level New York TRACON
Mon 15:41:36 40.7667 -74.6000 27° Northeast 233 431 3,800 -450 Descending New York TRACON
Mon 15:42:36 40.8167 -74.5500 37° Northeast 225 417 3,100 -400 Descending New York TRACON
Mon 15:43:36 40.8667 -74.5167 27° Northeast 222 410 3,000 -50 Descending New York TRACON
Mon 15:44:36 40.9167 -74.4667 37° Northeast 216 401 3,000  Level New York TRACON
Mon 15:45:36 40.9667 -74.4167 37° Northeast 209 388 3,000  Level New York TRACON
Mon 15:46:36 41.0000 -74.3667 49° Northeast 192 356 3,000  Level New York TRACON
Mon 15:47:36 41.0167 -74.3000 72° East 205 380 3,000 -150 Level New York TRACON
Mon 15:48:36 41.0333 -74.2167 75° East 204 378 2,700 -500 Descending New York TRACON
Mon 15:49:36 41.0333 -74.1500 90° East 199 369 2,000 -353 Descending New York TRACON
Mon 15:50:35 41.0333 -74.0833 90° East 194 359 2,000  Level New York TRACON
Mon 15:51:30 41.0167 -74.0167 108° East 189 349 2,000  Level New York TRACON
Mon 15:52:35 40.9833 -73.9667 131° Southeast 200 370 2,000 -238 Level New York TRACON
Mon 15:53:36 40.9333 -73.9833 194° South 175 323 1,500 -492 Descending New York TRACON

Login

Don't have an account? Register now (free) for customized features, flight alerts, and more!